Mamer, Luxembourg
Current Conditions -  °F | °C
As of 6:50 PM on Thursday 30 Oct 2014 (Local Time) from ELLX Reporting Station
Clear Clear  
Wind Chill: 54°   Ceiling: Unl
Heat Index: 54°   Visibility: 2.1mi
Dew Point: 52°   Wind: 3mph
Humidity: 94%   Direction: 80°E
Pressure: 30.27"   Gusts: NA
Location:  49.63°N, 6.02°E
Report Text: ELLX 301750Z 08003KT 3500 R24/0375V1200N NSC 12/11 Q1025 NOSIG
Loading
Personal Weather Stations






























Interactive Weather Map
Tropical Storm Tracking
New forecast layout! Learn more

10-Day Weather Forecast

Advertisements
Track Severe Weather on mobile